createdAt,value
2023-10-07T00:01:37.377Z,11.90
2023-10-07T00:04:13.376Z,13.65
2023-10-07T00:06:50.074Z,14.07
2023-10-07T00:09:25.016Z,15.52
2023-10-07T00:11:57.399Z,13.85
2023-10-07T00:14:34.022Z,13.52
2023-10-07T00:17:11.483Z,16.58
2023-10-07T00:19:46.375Z,24.42
2023-10-07T00:22:24.680Z,13.70
2023-10-07T00:24:57.947Z,15.48
2023-10-07T00:27:42.479Z,15.00
2023-10-07T00:30:32.446Z,10.85
2023-10-07T00:33:14.387Z,16.55
2023-10-07T00:35:53.757Z,16.85
2023-10-07T00:38:46.515Z,13.23
2023-10-07T00:41:23.344Z,15.55
2023-10-07T00:44:02.674Z,18.65
2023-10-07T00:46:37.777Z,14.20
2023-10-07T00:49:18.491Z,15.30
2023-10-07T00:51:56.782Z,19.02
2023-10-07T00:54:52.027Z,14.27
2023-10-07T00:57:38.003Z,15.57
2023-10-07T01:00:36.939Z,19.85
2023-10-07T01:03:20.218Z,15.15
2023-10-07T01:06:11.846Z,16.27
2023-10-07T01:08:53.721Z,14.23
2023-10-07T01:11:32.601Z,16.75
2023-10-07T01:14:07.734Z,17.40
2023-10-07T01:16:45.085Z,17.25
2023-10-07T01:19:33.036Z,18.92
2023-10-07T01:22:12.203Z,17.48
2023-10-07T01:24:52.726Z,19.95
2023-10-07T01:27:37.517Z,17.63
2023-10-07T01:30:18.162Z,16.30
2023-10-07T01:33:04.011Z,19.88
2023-10-07T01:35:40.018Z,14.02
2023-10-07T01:38:09.822Z,14.88
2023-10-07T01:40:56.910Z,14.85
2023-10-07T01:43:28.173Z,18.00
2023-10-07T01:45:57.467Z,23.13
2023-10-07T01:48:29.272Z,24.95
2023-10-07T01:51:00.083Z,20.35
2023-10-07T01:53:29.481Z,17.30
2023-10-07T01:56:06.466Z,15.45
2023-10-07T01:58:37.424Z,15.38
2023-10-07T02:01:07.445Z,18.05
2023-10-07T02:03:36.594Z,15.27
2023-10-07T02:06:06.993Z,17.55
2023-10-07T02:08:38.495Z,15.25
2023-10-07T02:11:08.210Z,24.77
2023-10-07T02:13:39.657Z,16.98
2023-10-07T02:16:09.244Z,16.73
2023-10-07T02:18:37.633Z,14.93
2023-10-07T02:21:09.496Z,16.25
2023-10-07T02:23:41.527Z,18.85
2023-10-07T02:26:15.880Z,17.70
2023-10-07T02:28:45.285Z,19.27
2023-10-07T02:31:18.230Z,17.70
2023-10-07T02:33:47.557Z,19.35
2023-10-07T02:36:29.215Z,18.90
2023-10-07T02:39:02.298Z,15.85
2023-10-07T02:41:32.780Z,20.85
2023-10-07T02:44:06.256Z,22.48
2023-10-07T02:46:35.140Z,16.05
2023-10-07T02:49:06.325Z,13.73
2023-10-07T02:51:41.375Z,15.52
2023-10-07T02:54:18.785Z,24.05
2023-10-07T02:56:55.835Z,14.52
2023-10-07T02:59:29.018Z,15.48
2023-10-07T03:02:14.683Z,18.10
2023-10-07T03:04:43.634Z,19.23
2023-10-07T03:07:18.110Z,16.88
2023-10-07T03:09:54.106Z,17.85
2023-10-07T03:12:29.625Z,13.88
2023-10-07T03:15:03.054Z,14.18
2023-10-07T03:17:39.430Z,15.27
2023-10-07T03:20:22.450Z,15.05
2023-10-07T03:23:04.951Z,19.25
2023-10-07T03:25:49.587Z,20.80
2023-10-07T03:28:19.831Z,13.20
2023-10-07T03:30:52.616Z,16.60
2023-10-07T03:33:24.993Z,18.85
2023-10-07T03:36:09.996Z,20.98
2023-10-07T03:38:40.140Z,24.48
2023-10-07T03:41:10.917Z,18.40
2023-10-07T03:43:42.619Z,23.27
2023-10-07T03:46:10.779Z,23.20
2023-10-07T03:48:40.779Z,14.73
2023-10-07T03:51:09.790Z,19.08
2023-10-07T03:53:45.728Z,16.63
2023-10-07T03:56:14.417Z,15.23
2023-10-07T03:58:44.518Z,17.48
2023-10-07T04:01:19.385Z,20.48
2023-10-07T04:03:49.192Z,23.10
2023-10-07T04:06:18.523Z,19.95
2023-10-07T04:08:54.015Z,18.88
2023-10-07T04:11:27.820Z,17.63
2023-10-07T04:13:57.885Z,20.60
2023-10-07T04:16:28.478Z,20.27
2023-10-07T04:19:07.953Z,19.33
2023-10-07T04:21:40.905Z,16.40
2023-10-07T04:24:12.267Z,20.48
2023-10-07T04:26:41.517Z,19.02
2023-10-07T04:29:16.388Z,16.95
2023-10-07T04:31:48.842Z,22.33
2023-10-07T04:34:18.225Z,19.25
2023-10-07T04:37:12.099Z,17.23
2023-10-07T04:39:54.484Z,24.58
2023-10-07T04:42:22.768Z,16.23
2023-10-07T04:45:19.018Z,17.27
2023-10-07T04:47:48.954Z,17.65
2023-10-07T04:50:17.084Z,14.30
2023-10-07T04:52:52.050Z,19.02
2023-10-07T04:55:27.430Z,15.52
2023-10-07T04:57:58.312Z,15.07
2023-10-07T05:00:38.270Z,18.85
2023-10-07T05:03:12.350Z,18.35
2023-10-07T05:05:44.486Z,16.17
2023-10-07T05:08:12.550Z,17.58
2023-10-07T05:10:43.018Z,14.20
2023-10-07T05:13:11.746Z,17.20
2023-10-07T05:15:43.385Z,14.90
2023-10-07T05:18:14.340Z,18.80
2023-10-07T05:20:43.237Z,15.32
2023-10-07T05:23:15.519Z,20.92
2023-10-07T05:25:49.699Z,17.88
2023-10-07T05:28:21.998Z,16.40
2023-10-07T05:30:53.128Z,14.27
2023-10-07T05:33:25.889Z,17.08
2023-10-07T05:35:59.539Z,15.23
2023-10-07T05:38:27.631Z,19.92
2023-10-07T05:40:56.144Z,14.40
2023-10-07T05:43:24.331Z,12.52
2023-10-07T05:45:54.665Z,15.93
2023-10-07T05:48:22.794Z,10.68
2023-10-07T05:50:50.892Z,13.98
2023-10-07T05:53:18.978Z,13.32
2023-10-07T05:55:49.571Z,15.57
2023-10-07T05:58:21.542Z,12.23
2023-10-07T06:00:49.678Z,16.60
2023-10-07T06:03:19.192Z,14.45
2023-10-07T06:05:47.372Z,10.10
2023-10-07T06:08:16.604Z,14.25
2023-10-07T06:10:53.121Z,16.13
2023-10-07T06:13:21.179Z,18.23
2023-10-07T06:15:49.362Z,15.77
2023-10-07T06:18:19.973Z,20.40
2023-10-07T06:20:48.737Z,12.75
2023-10-07T06:23:17.665Z,14.55
2023-10-07T06:25:50.317Z,16.00
2023-10-07T06:28:30.972Z,10.77
2023-10-07T06:31:11.554Z,15.25
2023-10-07T06:33:41.763Z,20.80
2023-10-07T06:36:11.474Z,13.52
2023-10-07T06:38:46.342Z,14.05
2023-10-07T06:41:14.834Z,11.73
2023-10-07T06:43:44.172Z,15.95
2023-10-07T06:46:13.340Z,16.27
2023-10-07T06:48:44.368Z,16.73
2023-10-07T06:51:12.661Z,10.30
2023-10-07T06:53:44.256Z,20.67
2023-10-07T06:56:22.492Z,15.50
2023-10-07T06:58:54.812Z,11.43
2023-10-07T07:01:38.813Z,15.02
2023-10-07T07:04:12.564Z,17.88
2023-10-07T07:06:44.057Z,13.93
2023-10-07T07:09:26.357Z,15.45
2023-10-07T07:11:56.790Z,17.40
2023-10-07T07:14:29.252Z,16.30
2023-10-07T07:16:58.384Z,17.63
2023-10-07T07:19:28.358Z,15.20
2023-10-07T07:21:58.573Z,18.27
2023-10-07T07:24:26.727Z,16.92
2023-10-07T07:26:54.197Z,20.73
2023-10-07T07:29:24.891Z,18.42
2023-10-07T07:31:52.902Z,15.55
2023-10-07T07:34:27.078Z,15.23
2023-10-07T07:37:04.402Z,17.75
2023-10-07T07:39:32.439Z,15.95
2023-10-07T07:42:16.619Z,14.32
2023-10-07T07:44:56.873Z,14.30
2023-10-07T07:47:28.746Z,16.95
2023-10-07T07:49:57.065Z,12.30
2023-10-07T07:52:26.579Z,17.63
2023-10-07T07:54:55.147Z,14.50
2023-10-07T07:57:25.871Z,14.98
2023-10-07T07:59:53.877Z,17.17
2023-10-07T08:02:25.467Z,14.93
2023-10-07T08:05:04.072Z,18.52
2023-10-07T08:07:34.301Z,17.90
2023-10-07T08:10:05.168Z,14.13
2023-10-07T08:12:35.555Z,16.52
2023-10-07T08:15:16.398Z,12.45
2023-10-07T08:17:46.299Z,16.50
2023-10-07T08:20:19.921Z,14.40
2023-10-07T08:22:53.215Z,19.92
2023-10-07T08:25:36.205Z,16.42
2023-10-07T08:28:19.420Z,16.55
2023-10-07T08:30:48.769Z,15.05
2023-10-07T08:33:17.302Z,13.80
2023-10-07T08:35:45.535Z,15.15
2023-10-07T08:38:23.921Z,17.45
2023-10-07T08:41:05.768Z,18.58
2023-10-07T08:43:39.049Z,15.75
2023-10-07T08:46:09.760Z,16.73
2023-10-07T08:48:39.981Z,13.27
2023-10-07T08:51:16.013Z,17.75
2023-10-07T08:53:49.025Z,15.80
2023-10-07T08:56:19.400Z,15.77
2023-10-07T08:58:50.712Z,15.88
2023-10-07T09:01:19.585Z,14.45
2023-10-07T09:03:53.474Z,15.48
2023-10-07T09:06:21.885Z,12.30
2023-10-07T09:08:51.281Z,13.52
2023-10-07T09:11:21.101Z,15.82
2023-10-07T09:13:51.282Z,13.38
2023-10-07T09:16:23.733Z,13.88
2023-10-07T09:18:57.174Z,13.68
2023-10-07T09:21:29.644Z,16.70
2023-10-07T09:24:02.959Z,10.75
2023-10-07T09:26:35.225Z,15.30
2023-10-07T09:29:15.919Z,17.60
2023-10-07T09:31:47.041Z,7.43
2023-10-07T09:34:31.426Z,19.40
2023-10-07T09:37:06.925Z,15.77
2023-10-07T09:39:45.261Z,11.40
2023-10-07T09:42:37.688Z,11.35
2023-10-07T09:45:17.998Z,14.32
2023-10-07T09:47:46.538Z,13.85
2023-10-07T09:50:26.875Z,11.00
2023-10-07T09:53:17.457Z,11.35
2023-10-07T09:56:05.325Z,14.00
2023-10-07T09:58:48.455Z,15.30
2023-10-07T10:01:40.305Z,11.50
2023-10-07T10:04:33.770Z,12.05
2023-10-07T10:07:29.556Z,12.13
2023-10-07T10:10:06.644Z,9.00
2023-10-07T10:12:57.662Z,10.15
2023-10-07T10:15:54.512Z,12.30
2023-10-07T10:18:41.411Z,17.17
2023-10-07T10:21:13.436Z,67.60
2023-10-07T10:23:45.435Z,9.05
2023-10-07T10:26:22.641Z,14.10
2023-10-07T10:29:05.385Z,7.93
2023-10-07T10:31:36.151Z,15.52
2023-10-07T10:34:07.235Z,10.63
2023-10-07T10:36:42.797Z,15.13
2023-10-07T10:41:59.644Z,8.10
2023-10-07T10:44:37.058Z,13.07
2023-10-07T10:47:06.453Z,11.45
2023-10-07T10:49:36.619Z,9.07
2023-10-07T10:52:05.731Z,4.93
2023-10-07T10:54:37.123Z,6.55
2023-10-07T10:57:09.015Z,8.77
2023-10-07T10:59:44.061Z,10.18
2023-10-07T11:02:13.400Z,8.10
2023-10-07T11:04:42.208Z,5.38
2023-10-07T11:07:10.313Z,9.63
2023-10-07T11:09:40.079Z,7.75
2023-10-07T11:12:14.069Z,9.02
2023-10-07T11:14:45.588Z,8.85
2023-10-07T11:17:17.510Z,9.40
2023-10-07T11:19:48.563Z,9.32
2023-10-07T11:22:20.616Z,8.68
2023-10-07T11:24:51.868Z,5.68
2023-10-07T11:27:25.623Z,8.70
2023-10-07T11:30:03.111Z,10.20
2023-10-07T11:32:31.658Z,9.27
2023-10-07T11:35:01.096Z,8.40
2023-10-07T11:37:29.522Z,9.10
2023-10-07T11:39:58.028Z,10.93
2023-10-07T11:42:25.957Z,9.73
2023-10-07T11:44:57.233Z,7.03
2023-10-07T11:47:28.402Z,4.53
2023-10-07T11:49:57.528Z,3.92
2023-10-07T11:52:29.069Z,10.95
2023-10-07T11:54:57.207Z,7.78
2023-10-07T11:57:25.406Z,13.02
2023-10-07T11:59:53.992Z,2.90
2023-10-07T12:02:25.140Z,5.70
2023-10-07T12:05:00.368Z,3.63
2023-10-07T12:07:31.453Z,5.40
2023-10-07T12:10:00.008Z,3.92
2023-10-07T12:12:31.933Z,4.93
2023-10-07T12:15:00.690Z,5.28
2023-10-07T12:17:28.669Z,2.80
2023-10-07T12:19:58.118Z,9.80
2023-10-07T12:22:26.431Z,7.07
2023-10-07T12:24:54.598Z,2.90
2023-10-07T12:27:22.584Z,4.07
2023-10-07T12:29:50.542Z,6.10
2023-10-07T12:32:18.584Z,8.68
2023-10-07T12:34:49.255Z,6.88
2023-10-07T12:37:18.905Z,5.18
2023-10-07T12:39:51.722Z,4.70
2023-10-07T12:42:20.167Z,4.32
2023-10-07T12:44:48.091Z,5.63
2023-10-07T12:47:16.421Z,8.45
2023-10-07T12:49:46.549Z,3.65
2023-10-07T12:52:17.912Z,8.48
2023-10-07T12:54:49.246Z,4.53
2023-10-07T12:57:17.167Z,3.97
2023-10-07T12:59:48.306Z,6.38
2023-10-07T13:02:18.669Z,3.53
2023-10-07T13:04:49.018Z,6.63
2023-10-07T13:07:19.733Z,4.07
2023-10-07T13:09:49.473Z,4.30
2023-10-07T13:12:20.025Z,6.47
2023-10-07T13:14:48.059Z,4.13
2023-10-07T13:17:17.253Z,4.57
2023-10-07T13:19:49.361Z,3.30
2023-10-07T13:22:19.452Z,5.38
2023-10-07T13:24:48.777Z,3.65
2023-10-07T13:27:17.573Z,6.90
2023-10-07T13:29:48.840Z,4.55
2023-10-07T13:32:18.614Z,4.03
2023-10-07T13:34:47.046Z,2.60
2023-10-07T13:37:14.963Z,4.45
2023-10-07T13:39:42.961Z,3.58
2023-10-07T13:42:12.539Z,4.25
2023-10-07T13:44:42.169Z,4.22
2023-10-07T13:47:10.240Z,3.30
2023-10-07T13:49:39.512Z,5.82
2023-10-07T13:52:10.874Z,3.13
2023-10-07T13:54:48.261Z,4.00
2023-10-07T13:57:25.590Z,3.15
2023-10-07T13:59:53.869Z,10.15
2023-10-07T14:02:22.311Z,2.47
2023-10-07T14:04:54.141Z,6.55
2023-10-07T14:07:22.542Z,3.90
2023-10-07T14:09:50.863Z,3.25
2023-10-07T14:12:20.104Z,6.15
2023-10-07T14:14:53.413Z,9.18
2023-10-07T14:17:22.688Z,4.63
2023-10-07T14:19:50.850Z,7.38
2023-10-07T14:22:19.350Z,3.63
2023-10-07T14:24:49.095Z,4.70
2023-10-07T14:27:18.367Z,10.65
2023-10-07T14:29:58.272Z,5.18
2023-10-07T14:32:29.032Z,3.33
2023-10-07T14:34:57.669Z,7.75
2023-10-07T14:37:26.118Z,7.97
2023-10-07T14:39:57.740Z,3.60
2023-10-07T14:42:27.072Z,5.00
2023-10-07T14:44:58.206Z,5.15
2023-10-07T14:47:26.884Z,4.50
2023-10-07T14:49:55.848Z,5.13
2023-10-07T14:52:24.337Z,3.42
2023-10-07T14:54:55.891Z,4.65
2023-10-07T14:57:24.198Z,5.43
2023-10-07T14:59:52.499Z,3.75
2023-10-07T15:02:21.849Z,4.63
2023-10-07T15:04:53.027Z,5.82
2023-10-07T15:07:21.721Z,4.03
2023-10-07T15:09:51.069Z,4.95
2023-10-07T15:12:21.020Z,6.30
2023-10-07T15:14:49.104Z,3.08
2023-10-07T15:17:17.844Z,3.80
2023-10-07T15:19:54.282Z,3.35
2023-10-07T15:22:22.401Z,6.20
2023-10-07T15:24:50.466Z,7.40
2023-10-07T15:27:18.669Z,6.55
2023-10-07T15:29:46.566Z,7.25
2023-10-07T15:32:14.575Z,7.30
2023-10-07T15:34:42.518Z,4.45
2023-10-07T15:37:12.190Z,8.25
2023-10-07T15:39:40.097Z,7.78
2023-10-07T15:42:13.585Z,4.10
2023-10-07T15:44:42.002Z,5.63
2023-10-07T15:47:10.682Z,4.90
2023-10-07T15:49:38.750Z,5.13
2023-10-07T15:52:09.702Z,2.67
2023-10-07T15:54:39.453Z,6.85
2023-10-07T15:57:09.910Z,11.05
2023-10-07T15:59:38.873Z,6.05
2023-10-07T16:02:09.794Z,3.90
2023-10-07T16:04:37.945Z,5.75
2023-10-07T16:07:06.199Z,5.05
2023-10-07T16:09:34.507Z,6.28
2023-10-07T16:12:05.308Z,6.75
2023-10-07T16:14:36.641Z,2.83
2023-10-07T16:17:06.567Z,5.55
2023-10-07T16:19:34.611Z,3.10
2023-10-07T16:22:03.037Z,8.98
2023-10-07T16:24:31.388Z,4.07
2023-10-07T16:26:59.341Z,7.18
2023-10-07T16:29:31.276Z,9.88
2023-10-07T16:31:59.722Z,4.47
2023-10-07T16:34:28.166Z,2.88
2023-10-07T16:36:56.515Z,4.63
2023-10-07T16:39:26.838Z,4.93
2023-10-07T16:41:55.595Z,4.28
2023-10-07T16:44:23.794Z,4.53
2023-10-07T16:46:54.180Z,3.58
2023-10-07T16:49:23.272Z,2.88
2023-10-07T16:51:52.634Z,4.43
2023-10-07T16:54:20.575Z,4.75
2023-10-07T16:56:48.738Z,6.22
2023-10-07T16:59:18.841Z,4.22
2023-10-07T17:01:46.809Z,6.25
2023-10-07T17:04:16.117Z,3.95
2023-10-07T17:06:44.090Z,4.10
2023-10-07T17:09:13.291Z,5.32
2023-10-07T17:11:44.285Z,3.95
2023-10-07T17:14:12.349Z,5.15
2023-10-07T17:16:40.428Z,5.82
2023-10-07T17:19:08.532Z,5.00
2023-10-07T17:21:38.873Z,6.55
2023-10-07T17:24:09.925Z,5.53
2023-10-07T17:26:39.385Z,7.10
2023-10-07T17:29:10.317Z,7.10
2023-10-07T17:31:38.652Z,5.32
2023-10-07T17:34:08.109Z,3.50
2023-10-07T17:36:39.308Z,8.23
2023-10-07T17:39:12.360Z,3.60
2023-10-07T17:41:47.873Z,6.07
2023-10-07T17:44:19.173Z,6.95
2023-10-07T17:46:47.848Z,5.22
2023-10-07T17:49:16.113Z,2.47
2023-10-07T17:51:50.009Z,6.22
2023-10-07T17:54:19.208Z,5.65
2023-10-07T17:56:47.604Z,4.65
2023-10-07T17:59:15.888Z,6.38
2023-10-07T18:01:46.293Z,3.65
2023-10-07T18:04:15.239Z,3.25
2023-10-07T18:06:43.153Z,3.40
2023-10-07T18:09:15.812Z,2.83
2023-10-07T18:11:53.741Z,3.03
2023-10-07T18:14:22.065Z,2.85
2023-10-07T18:16:51.817Z,4.60
2023-10-07T18:19:19.947Z,3.88
2023-10-07T18:21:48.902Z,4.00
2023-10-07T18:24:18.390Z,5.05
2023-10-07T18:26:47.328Z,10.35
2023-10-07T18:29:15.324Z,3.42
2023-10-07T18:31:44.170Z,8.02
2023-10-07T18:34:15.759Z,10.93
2023-10-07T18:36:44.624Z,8.18
2023-10-07T18:39:14.910Z,3.33
2023-10-07T18:41:44.790Z,6.80
2023-10-07T18:44:13.381Z,6.85
2023-10-07T18:46:43.648Z,4.82
2023-10-07T18:49:12.094Z,3.80
2023-10-07T18:51:45.839Z,5.38
2023-10-07T18:54:14.663Z,6.45
2023-10-07T18:56:43.995Z,6.10
2023-10-07T18:59:15.099Z,2.53
2023-10-07T19:01:43.069Z,4.63
2023-10-07T19:04:11.475Z,5.75
2023-10-07T19:06:41.235Z,4.03
2023-10-07T19:09:10.453Z,3.65
2023-10-07T19:11:40.193Z,7.95
2023-10-07T19:14:11.080Z,4.05
2023-10-07T19:16:41.294Z,6.00
2023-10-07T19:19:14.843Z,3.38
2023-10-07T19:21:44.821Z,7.40
2023-10-07T19:24:12.994Z,3.45
2023-10-07T19:26:42.356Z,3.60
2023-10-07T19:29:12.953Z,7.07
2023-10-07T19:31:43.199Z,4.78
2023-10-07T19:34:12.979Z,4.97
2023-10-07T19:36:41.903Z,6.07
2023-10-07T19:39:10.691Z,5.28
2023-10-07T19:41:41.149Z,7.18
2023-10-07T19:44:09.944Z,7.47
2023-10-07T19:46:39.349Z,5.18
2023-10-07T19:49:08.025Z,4.15
2023-10-07T19:51:37.848Z,5.90
2023-10-07T19:54:07.244Z,6.18
2023-10-07T19:56:37.137Z,4.32
2023-10-07T19:59:05.224Z,7.13
2023-10-07T20:01:33.175Z,2.92
2023-10-07T20:04:04.796Z,3.92
2023-10-07T20:06:34.447Z,4.20
2023-10-07T20:09:06.257Z,3.90
2023-10-07T20:11:34.313Z,6.32
2023-10-07T20:14:03.910Z,5.80
2023-10-07T20:16:34.783Z,3.55
2023-10-07T20:19:06.339Z,2.28
2023-10-07T20:21:34.574Z,7.47
2023-10-07T20:24:03.563Z,6.32
2023-10-07T20:26:32.533Z,5.95
2023-10-07T20:29:02.160Z,3.70
2023-10-07T20:31:30.508Z,5.80
2023-10-07T20:33:59.986Z,3.85
2023-10-07T20:36:36.596Z,5.53
2023-10-07T20:39:11.568Z,6.15
2023-10-07T20:41:41.627Z,7.55
2023-10-07T20:44:10.688Z,5.93
2023-10-07T20:46:38.713Z,4.32
2023-10-07T20:49:07.768Z,6.85
2023-10-07T20:51:40.942Z,7.13
2023-10-07T20:54:09.302Z,6.95
2023-10-07T20:56:39.759Z,5.25
2023-10-07T20:59:10.161Z,8.57
2023-10-07T21:01:42.004Z,4.50
2023-10-07T21:04:10.703Z,6.22
2023-10-07T21:06:41.571Z,8.48
2023-10-07T21:09:12.092Z,5.47
2023-10-07T21:11:40.963Z,4.82
2023-10-07T21:14:09.044Z,3.78
2023-10-07T21:16:39.752Z,4.75
2023-10-07T21:19:07.871Z,4.55
2023-10-07T21:21:37.347Z,3.38
2023-10-07T21:24:19.032Z,3.30
2023-10-07T21:26:55.072Z,3.95
2023-10-07T21:29:24.205Z,5.07
2023-10-07T21:31:52.290Z,4.32
2023-10-07T21:34:20.299Z,5.00
2023-10-07T21:36:48.222Z,6.07
2023-10-07T21:39:17.619Z,7.05
2023-10-07T21:41:45.670Z,4.30
2023-10-07T21:44:14.250Z,4.85
2023-10-07T21:46:45.175Z,4.13
2023-10-07T21:49:13.695Z,6.10
2023-10-07T21:51:44.070Z,5.63
2023-10-07T21:54:12.521Z,4.55
2023-10-07T21:56:43.577Z,4.85
2023-10-07T21:59:14.746Z,4.38
2023-10-07T22:01:44.304Z,4.57
2023-10-07T22:04:18.120Z,5.53
2023-10-07T22:06:50.352Z,3.38
2023-10-07T22:09:21.218Z,5.05
2023-10-07T22:11:50.965Z,5.57
2023-10-07T22:14:20.544Z,4.15
2023-10-07T22:16:50.402Z,3.33
2023-10-07T22:19:20.135Z,3.53
2023-10-07T22:21:49.777Z,4.25
2023-10-07T22:24:18.747Z,2.97
2023-10-07T22:26:46.723Z,7.00
2023-10-07T22:29:19.700Z,5.05
2023-10-07T22:31:55.630Z,3.95
2023-10-07T22:34:24.104Z,3.05
2023-10-07T22:36:55.884Z,7.00
2023-10-07T22:39:31.698Z,5.35
2023-10-07T22:42:13.640Z,4.05
2023-10-07T22:44:46.956Z,4.75
2023-10-07T22:47:15.333Z,6.60
